Time;durP1;ratioP1;P1;durP2;ratioP2;P2;SDS_P1;SDS_P2;PMS_P1;PMS_P2;Temp;Humidity;BMP_temperature;BMP_pressure;BME280_temperature;BME280_humidity;BME280_pressure;Samples;Min_cycle;Max_cycle;Signal;HPM_P1;HPM_P2
2022/06/13 00:01:29;;;;;;;;;;;14.70;99.90;;;;;;5075869;28;19912;-79
2022/06/13 00:03:55;;;;;;;;;;;14.60;99.90;;;;;;5075837;28;19916;-79
2022/06/13 00:06:20;;;;;;;;;;;14.40;99.90;;;;;;5075680;28;19908;-79
2022/06/13 00:08:46;;;;;;;;;;;14.40;99.90;;;;;;5075829;28;19908;-79
2022/06/13 00:11:13;;;;;;;;;;;14.50;99.90;;;;;;5074244;28;19908;-79
2022/06/13 00:13:39;;;;;;;;;;;14.50;99.90;;;;;;5075739;28;20395;-79
2022/06/13 00:16:05;;;;;;;;;;;14.60;99.90;;;;;;5075465;28;20388;-79
2022/06/13 00:18:30;;;;;;;;;;;14.90;99.90;;;;;;5075420;28;19909;-79
2022/06/13 00:20:56;;;;;;;;;;;15.00;99.90;;;;;;5075721;28;20003;-79
2022/06/13 00:23:22;;;;;;;;;;;15.10;99.90;;;;;;5074691;28;19912;-79
2022/06/13 00:25:48;;;;;;;;;;;15.00;99.90;;;;;;5075550;28;20020;-79
2022/06/13 00:28:14;;;;;;;;;;;14.90;99.90;;;;;;5075253;28;19908;-79
2022/06/13 00:30:39;;;;;;;;;;;14.80;99.90;;;;;;5075214;28;20011;-79
2022/06/13 00:33:05;;;;;;;;;;;14.70;99.90;;;;;;5074150;28;19915;-78
2022/06/13 00:35:30;;;;;;;;;;;14.70;99.90;;;;;;5073819;28;20371;-79
2022/06/13 00:37:56;;;;;;;;;;;14.70;99.90;;;;;;5074874;28;19920;-79
2022/06/13 00:40:22;;;;;;;;;;;14.60;99.90;;;;;;5073624;28;19916;-79
2022/06/13 00:42:48;;;;;;;;;;;14.60;99.90;;;;;;5074967;28;19919;-79
2022/06/13 00:45:21;;;;;;;;;;;14.50;99.90;;;;;;5075022;28;19908;-79
2022/06/13 00:47:48;;;;;;;;;;;14.50;99.90;;;;;;5075067;28;19909;-79
2022/06/13 00:50:19;;;;;;;;;;;14.70;99.90;;;;;;5074804;28;20001;-79
2022/06/13 00:52:50;;;;;;;;;;;14.60;99.90;;;;;;5074697;28;19991;-79
2022/06/13 00:55:21;;;;;;;;;;;14.60;99.90;;;;;;5074857;28;19908;-79
2022/06/13 00:57:46;;;;;;;;;;;14.60;99.90;;;;;;5074890;28;20312;-79
2022/06/13 01:00:13;;;;;;;;;;;14.60;99.90;;;;;;5074642;28;19915;-79
2022/06/13 01:02:40;;;;;;;;;;;14.50;99.90;;;;;;5074538;28;19912;-79
2022/06/13 01:05:07;;;;;;;;;;;14.40;99.90;;;;;;5074526;28;19942;-79
2022/06/13 01:07:32;;;;;;;;;;;14.40;99.90;;;;;;5074664;28;19931;-79
2022/06/13 01:12:42;;;;;;;;;;;14.40;99.90;;;;;;5074519;28;19917;-79
2022/06/13 01:15:08;;;;;;;;;;;14.40;99.90;;;;;;5074341;28;19912;-79
2022/06/13 01:17:34;;;;;;;;;;;14.30;99.90;;;;;;5074312;28;19953;-79
2022/06/13 01:20:08;;;;;;;;;;;14.10;99.90;;;;;;5074292;28;19908;-79
2022/06/13 01:22:52;;;;;;;;;;;13.90;99.90;;;;;;5072673;28;20260;-79
2022/06/13 01:25:26;;;;;;;;;;;13.70;99.90;;;;;;5074328;28;19952;-79
2022/06/13 01:28:17;;;;;;;;;;;13.80;99.90;;;;;;5074212;28;19909;-79
2022/06/13 01:30:54;;;;;;;;;;;13.80;99.90;;;;;;5074113;28;20003;-79
2022/06/13 01:33:30;;;;;;;;;;;13.90;99.90;;;;;;5073952;28;19908;-79
2022/06/13 01:36:06;;;;;;;;;;;13.90;99.90;;;;;;5073818;28;19908;-79
2022/06/13 01:38:32;;;;;;;;;;;13.90;99.90;;;;;;5073869;28;19950;-79
2022/06/13 01:41:02;;;;;;;;;;;13.90;99.90;;;;;;5073843;28;19966;-79
2022/06/13 01:43:30;;;;;;;;;;;13.90;99.90;;;;;;5074073;28;20408;-79
2022/06/13 01:46:10;;;;;;;;;;;13.90;99.90;;;;;;5072576;28;20375;-79
2022/06/13 01:48:40;;;;;;;;;;;13.80;99.90;;;;;;5072614;28;20269;-79
2022/06/13 01:51:25;;;;;;;;;;;13.50;99.90;;;;;;5074108;28;19942;-79
2022/06/13 01:54:10;;;;;;;;;;;13.50;99.90;;;;;;5072526;28;19916;-79
2022/06/13 01:56:40;;;;;;;;;;;13.40;99.90;;;;;;5073261;28;19943;-79
2022/06/13 01:59:18;;;;;;;;;;;13.60;99.90;;;;;;5073968;28;19909;-79
2022/06/13 02:01:59;;;;;;;;;;;13.80;99.90;;;;;;5073850;28;19913;-79
2022/06/13 02:04:32;;;;;;;;;;;13.90;99.90;;;;;;5072138;28;19909;-79
2022/06/13 02:07:05;;;;;;;;;;;13.90;99.90;;;;;;5072333;28;20435;-79
2022/06/13 02:09:34;;;;;;;;;;;13.90;99.90;;;;;;5073668;28;19908;-79
2022/06/13 02:12:00;;;;;;;;;;;13.70;99.90;;;;;;5073508;28;19908;-79
2022/06/13 02:14:28;;;;;;;;;;;13.90;99.90;;;;;;5072292;28;19916;-79
2022/06/13 02:17:03;;;;;;;;;;;13.90;99.90;;;;;;5073528;28;19915;-79
2022/06/13 02:19:40;;;;;;;;;;;13.80;99.90;;;;;;5073521;28;19948;-79
2022/06/13 02:22:10;;;;;;;;;;;13.60;99.90;;;;;;5073736;28;20327;-79
2022/06/13 02:24:38;;;;;;;;;;;13.20;99.90;;;;;;5073913;28;20020;-79
2022/06/13 02:27:04;;;;;;;;;;;13.20;99.90;;;;;;5072141;28;20377;-79
2022/06/13 02:29:49;;;;;;;;;;;13.20;99.90;;;;;;5072164;28;19908;-79
2022/06/13 02:32:34;;;;;;;;;;;13.20;99.90;;;;;;5073416;28;19909;-79
2022/06/13 02:35:02;;;;;;;;;;;13.20;99.90;;;;;;5071571;28;20003;-79
2022/06/13 02:37:33;;;;;;;;;;;13.30;99.90;;;;;;5073472;28;20413;-79
2022/06/13 02:40:14;;;;;;;;;;;13.30;99.90;;;;;;5073467;28;19919;-79
2022/06/13 02:42:55;;;;;;;;;;;13.40;99.90;;;;;;5073406;28;19912;-79
2022/06/13 02:45:27;;;;;;;;;;;13.40;99.90;;;;;;5073770;28;19909;-79
2022/06/13 02:48:00;;;;;;;;;;;12.90;99.90;;;;;;5077182;28;19909;-79
2022/06/13 02:50:36;;;;;;;;;;;12.80;99.90;;;;;;5075603;28;19908;-79
2022/06/13 02:53:05;;;;;;;;;;;12.30;99.90;;;;;;5075742;28;19908;-79
2022/06/13 02:55:40;;;;;;;;;;;12.00;99.90;;;;;;5077196;28;19916;-79
2022/06/13 02:58:12;;;;;;;;;;;11.90;99.90;;;;;;5077246;28;19954;-79
2022/06/13 03:00:52;;;;;;;;;;;12.10;99.90;;;;;;5076898;28;19912;-79
2022/06/13 03:03:21;;;;;;;;;;;12.50;99.90;;;;;;5076749;28;19913;-79
2022/06/13 03:05:55;;;;;;;;;;;12.60;99.90;;;;;;5076914;28;19909;-78
2022/06/13 03:08:38;;;;;;;;;;;12.70;99.90;;;;;;5076784;28;20010;-79
2022/06/13 03:11:10;;;;;;;;;;;12.90;99.90;;;;;;5075101;28;19909;-79
2022/06/13 03:13:55;;;;;;;;;;;12.90;99.90;;;;;;5076811;28;19908;-79
2022/06/13 03:16:25;;;;;;;;;;;12.90;99.90;;;;;;5069173;28;20467;-79
2022/06/13 03:18:53;;;;;;;;;;;12.80;99.90;;;;;;5076652;28;20307;-79
2022/06/13 03:21:36;;;;;;;;;;;13.00;99.90;;;;;;5076436;28;20372;-79
2022/06/13 03:24:34;;;;;;;;;;;13.00;99.90;;;;;;5076758;28;19969;-79
2022/06/13 03:27:23;;;;;;;;;;;13.00;99.90;;;;;;5042171;28;19915;-79
2022/06/13 03:29:55;;;;;;;;;;;13.10;99.90;;;;;;5070738;28;20280;-79
2022/06/13 03:32:23;;;;;;;;;;;13.00;99.90;;;;;;5075079;28;20042;-79
2022/06/13 03:34:51;;;;;;;;;;;13.00;99.90;;;;;;5075013;28;20296;-79
2022/06/13 03:37:19;;;;;;;;;;;13.00;99.90;;;;;;5076066;28;19991;-79
2022/06/13 03:39:50;;;;;;;;;;;12.90;99.90;;;;;;5076444;28;19913;-79
2022/06/13 03:42:18;;;;;;;;;;;13.00;99.90;;;;;;5076993;28;19913;-79
2022/06/13 03:45:02;;;;;;;;;;;13.00;99.90;;;;;;5076236;28;19915;-79
2022/06/13 03:47:36;;;;;;;;;;;12.80;99.90;;;;;;5076438;28;19912;-79
2022/06/13 03:50:01;;;;;;;;;;;12.80;99.90;;;;;;5076025;28;20364;-79
2022/06/13 03:52:29;;;;;;;;;;;12.80;99.90;;;;;;5075968;28;19909;-79
2022/06/13 03:54:59;;;;;;;;;;;12.80;99.90;;;;;;5075960;28;19931;-79
2022/06/13 03:57:34;;;;;;;;;;;12.70;99.90;;;;;;5073544;28;19916;-79
2022/06/13 04:00:17;;;;;;;;;;;12.60;99.90;;;;;;5076149;28;19915;-79
2022/06/13 04:02:44;;;;;;;;;;;12.60;99.90;;;;;;5075815;28;19919;-79
2022/06/13 04:05:23;;;;;;;;;;;12.60;99.90;;;;;;5074455;28;19958;-79
2022/06/13 04:07:49;;;;;;;;;;;12.30;99.90;;;;;;5074153;28;19909;-79
2022/06/13 04:10:16;;;;;;;;;;;12.10;99.90;;;;;;5075780;28;19931;-79
2022/06/13 04:12:51;;;;;;;;;;;12.40;99.90;;;;;;5075431;28;19932;-79
2022/06/13 04:15:22;;;;;;;;;;;12.70;99.90;;;;;;5075640;28;19908;-79
2022/06/13 04:17:48;;;;;;;;;;;12.80;99.90;;;;;;5075440;28;19948;-79
2022/06/13 04:20:52;;;;;;;;;;;12.70;99.90;;;;;;5075594;28;19917;-79
2022/06/13 04:23:21;;;;;;;;;;;12.80;99.90;;;;;;5033610;28;20429;-79
2022/06/13 04:25:46;;;;;;;;;;;12.80;99.90;;;;;;5033492;28;19909;-79
2022/06/13 04:28:12;;;;;;;;;;;12.80;99.90;;;;;;5053522;28;19962;-79
2022/06/13 04:30:39;;;;;;;;;;;12.70;99.90;;;;;;5073907;28;19920;-79
2022/06/13 04:33:17;;;;;;;;;;;12.70;99.90;;;;;;5075217;28;19916;-79
2022/06/13 04:35:43;;;;;;;;;;;12.70;99.90;;;;;;5075011;28;19930;-79
2022/06/13 04:38:11;;;;;;;;;;;12.80;99.90;;;;;;5074878;28;19943;-79
2022/06/13 04:40:39;;;;;;;;;;;12.80;99.90;;;;;;5074931;28;19912;-79
2022/06/13 04:43:06;;;;;;;;;;;12.90;99.90;;;;;;5075148;28;20361;-79
2022/06/13 04:45:35;;;;;;;;;;;12.90;99.90;;;;;;5075206;28;19908;-79
2022/06/13 04:48:01;;;;;;;;;;;12.90;99.90;;;;;;5074881;28;19913;-79
2022/06/13 04:50:35;;;;;;;;;;;13.00;99.90;;;;;;5074784;28;19961;-79
2022/06/13 04:53:02;;;;;;;;;;;13.20;99.90;;;;;;5074962;28;19908;-79
2022/06/13 04:55:40;;;;;;;;;;;13.30;99.90;;;;;;5074734;28;20369;-79
2022/06/13 04:58:10;;;;;;;;;;;13.30;99.90;;;;;;5074815;28;19916;-79
2022/06/13 05:00:37;;;;;;;;;;;13.40;99.90;;;;;;5074624;28;19916;-79
2022/06/13 05:03:03;;;;;;;;;;;13.40;99.90;;;;;;5074764;28;19916;-79
2022/06/13 05:05:36;;;;;;;;;;;13.40;99.90;;;;;;5074526;28;19912;-79
2022/06/13 05:08:12;;;;;;;;;;;13.40;99.90;;;;;;5072772;28;20424;-79
2022/06/13 05:10:40;;;;;;;;;;;13.50;99.90;;;;;;5074433;28;19916;-79
2022/06/13 05:13:06;;;;;;;;;;;13.60;99.90;;;;;;5074359;28;19931;-79
2022/06/13 05:15:32;;;;;;;;;;;13.70;99.90;;;;;;5074690;28;20361;-79
2022/06/13 05:18:20;;;;;;;;;;;13.60;99.90;;;;;;5074649;28;20337;-79
2022/06/13 05:20:54;;;;;;;;;;;13.60;99.90;;;;;;5074330;28;19913;-79
2022/06/13 05:23:20;;;;;;;;;;;13.80;99.90;;;;;;5074422;28;19908;-79
2022/06/13 05:25:45;;;;;;;;;;;13.90;99.90;;;;;;5072936;28;19915;-79
2022/06/13 05:28:12;;;;;;;;;;;13.90;99.90;;;;;;5074428;28;20007;-78
2022/06/13 05:30:42;;;;;;;;;;;14.00;99.90;;;;;;5074073;28;19969;-79
2022/06/13 05:33:09;;;;;;;;;;;14.10;99.90;;;;;;5072722;28;19931;-79
2022/06/13 05:35:35;;;;;;;;;;;14.20;99.90;;;;;;5072710;28;19958;-79
2022/06/13 05:38:02;;;;;;;;;;;14.20;99.90;;;;;;5073829;28;19920;-79
2022/06/13 05:40:27;;;;;;;;;;;14.30;99.90;;;;;;5074077;28;20369;-79
2022/06/13 05:42:53;;;;;;;;;;;14.40;99.90;;;;;;5073891;28;19931;-79
2022/06/13 05:45:20;;;;;;;;;;;14.40;99.90;;;;;;5072544;28;20426;-79
2022/06/13 05:47:46;;;;;;;;;;;14.60;99.90;;;;;;5072463;28;19909;-79
2022/06/13 05:50:15;;;;;;;;;;;14.60;99.90;;;;;;5073978;28;19940;-79
2022/06/13 05:52:41;;;;;;;;;;;14.70;99.90;;;;;;5073704;28;19909;-79
2022/06/13 05:55:07;;;;;;;;;;;14.70;99.90;;;;;;5073598;28;20491;-79
2022/06/13 05:57:33;;;;;;;;;;;14.90;99.90;;;;;;5073987;28;19999;-79
2022/06/13 05:59:58;;;;;;;;;;;14.80;99.90;;;;;;5073620;28;19912;-79
2022/06/13 06:02:24;;;;;;;;;;;15.00;99.90;;;;;;5072342;28;20288;-79
2022/06/13 06:04:51;;;;;;;;;;;15.20;99.90;;;;;;5073701;28;19909;-79
2022/06/13 06:07:16;;;;;;;;;;;15.20;99.90;;;;;;5073724;28;20276;-79
2022/06/13 06:09:42;;;;;;;;;;;15.30;99.90;;;;;;5073611;28;19908;-79
2022/06/13 06:12:07;;;;;;;;;;;15.30;99.90;;;;;;5073805;28;19913;-79
2022/06/13 06:14:33;;;;;;;;;;;15.50;99.90;;;;;;5073642;28;20280;-78
2022/06/13 06:16:59;;;;;;;;;;;15.70;99.90;;;;;;5073497;28;19912;-79
2022/06/13 06:19:26;;;;;;;;;;;15.80;99.90;;;;;;5073476;28;19908;-79
2022/06/13 06:21:51;;;;;;;;;;;15.80;99.90;;;;;;5076643;28;19913;-79
2022/06/13 06:24:17;;;;;;;;;;;15.90;99.90;;;;;;5076386;28;20387;-79
2022/06/13 06:26:43;;;;;;;;;;;16.00;99.90;;;;;;5077622;28;19915;-79
2022/06/13 06:29:08;;;;;;;;;;;16.10;99.90;;;;;;5077580;28;19932;-79
2022/06/13 06:31:34;;;;;;;;;;;16.20;99.90;;;;;;5077647;28;20357;-79
2022/06/13 06:34:00;;;;;;;;;;;16.30;99.90;;;;;;5077601;28;19938;-79
2022/06/13 06:36:25;;;;;;;;;;;16.30;99.90;;;;;;5076133;28;19908;-79
2022/06/13 06:38:51;;;;;;;;;;;16.20;99.90;;;;;;5077123;28;19920;-79
2022/06/13 06:41:17;;;;;;;;;;;16.30;99.90;;;;;;5077319;28;19913;-79
2022/06/13 06:43:42;;;;;;;;;;;16.50;99.90;;;;;;5077564;28;19947;-79
2022/06/13 06:46:08;;;;;;;;;;;16.70;99.90;;;;;;5077328;28;19912;-79
2022/06/13 06:48:36;;;;;;;;;;;16.70;99.90;;;;;;5077147;28;19916;-79
2022/06/13 06:51:04;;;;;;;;;;;16.70;99.90;;;;;;5077518;28;19958;-79
2022/06/13 06:59:53;;;;;;;;;;;16.70;99.90;;;;;;5077237;28;20004;-79
2022/06/13 07:01:45;;;;;;;;;;;17.70;99.90;;;;;;5076625;28;19946;-79
2022/06/13 07:04:11;;;;;;;;;;;17.90;99.90;;;;;;5076929;28;19909;-79
2022/06/13 07:06:38;;;;;;;;;;;18.10;99.90;;;;;;5075530;28;19954;-78
2022/06/13 07:09:04;;;;;;;;;;;18.40;99.90;;;;;;5076795;28;20434;-78
2022/06/13 07:14:14;;;;;;;;;;;18.80;99.90;;;;;;5076722;28;20387;-79
2022/06/13 07:16:40;;;;;;;;;;;19.00;99.90;;;;;;5076675;28;19909;-79
2022/06/13 07:19:06;;;;;;;;;;;19.30;99.90;;;;;;5076838;28;19909;-79
2022/06/13 07:21:31;;;;;;;;;;;19.80;99.90;;;;;;5076636;28;19917;-79
2022/06/13 07:23:57;;;;;;;;;;;20.10;98.00;;;;;;5075214;28;19909;-79
2022/06/13 07:26:23;;;;;;;;;;;20.20;96.40;;;;;;5075145;28;19921;-79
2022/06/13 07:28:48;;;;;;;;;;;20.10;95.00;;;;;;5075122;28;19995;-79
2022/06/13 07:31:23;;;;;;;;;;;20.10;95.50;;;;;;5076365;28;19915;-79
2022/06/13 07:33:49;;;;;;;;;;;20.10;95.20;;;;;;5076423;28;19982;-79
2022/06/13 07:36:15;;;;;;;;;;;20.20;95.60;;;;;;5075305;28;20057;-79
2022/06/13 07:38:41;;;;;;;;;;;20.70;93.90;;;;;;5074730;28;20050;-80
2022/06/13 07:41:08;;;;;;;;;;;20.90;92.70;;;;;;5076135;28;20397;-79
2022/06/13 07:43:37;;;;;;;;;;;21.50;93.00;;;;;;5076311;28;19912;-79
2022/06/13 07:46:05;;;;;;;;;;;22.00;91.30;;;;;;5076202;28;19936;-80
2022/06/13 07:48:31;;;;;;;;;;;24.30;85.60;;;;;;5076294;28;19909;-80
2022/06/13 07:50:57;;;;;;;;;;;25.20;75.00;;;;;;5076041;28;19915;-80
2022/06/13 07:53:23;;;;;;;;;;;24.90;72.80;;;;;;5074662;28;20379;-80
2022/06/13 07:55:49;;;;;;;;;;;28.20;66.70;;;;;;5076158;28;19909;-80
2022/06/13 07:58:16;;;;;;;;;;;29.90;59.40;;;;;;5075849;28;20285;-80
2022/06/13 08:00:44;;;;;;;;;;;28.90;57.50;;;;;;5074515;28;19908;-80
2022/06/13 08:03:13;;;;;;;;;;;26.20;61.60;;;;;;5075959;28;19915;-80
2022/06/13 08:05:39;;;;;;;;;;;23.70;66.10;;;;;;5075768;28;20418;-79
2022/06/13 08:08:05;;;;;;;;;;;22.30;70.70;;;;;;5075732;28;19908;-80
2022/06/13 08:10:30;;;;;;;;;;;21.30;74.00;;;;;;5074328;28;19908;-79
2022/06/13 08:12:57;;;;;;;;;;;20.80;77.30;;;;;;5075566;28;20391;-80
2022/06/13 08:15:24;;;;;;;;;;;20.70;79.40;;;;;;5074320;28;19909;-79
2022/06/13 08:17:49;;;;;;;;;;;20.60;81.20;;;;;;5075475;28;20034;-79
2022/06/13 08:20:15;;;;;;;;;;;22.70;77.20;;;;;;5075805;28;19944;-80
2022/06/13 08:22:45;;;;;;;;;;;25.90;70.50;;;;;;5075390;28;19955;-80
2022/06/13 08:25:19;;;;;;;;;;;28.20;65.20;;;;;;5075473;28;19948;-80
2022/06/13 08:27:44;;;;;;;;;;;28.90;60.60;;;;;;5075770;28;19908;-80
2022/06/13 08:30:10;;;;;;;;;;;27.90;59.10;;;;;;5075651;28;19908;-78
2022/06/13 08:32:35;;;;;;;;;;;27.40;60.20;;;;;;5075194;28;19912;-77
2022/06/13 08:35:01;;;;;;;;;;;27.80;60.80;;;;;;5075180;28;19909;-78
2022/06/13 08:37:26;;;;;;;;;;;28.40;58.40;;;;;;5074935;28;19909;-78
2022/06/13 08:39:52;;;;;;;;;;;28.40;56.80;;;;;;5075303;28;20304;-77
2022/06/13 08:42:38;;;;;;;;;;;26.30;58.70;;;;;;5075192;28;19916;-78
2022/06/13 08:45:17;;;;;;;;;;;27.00;59.60;;;;;;5074593;28;19938;-78
2022/06/13 08:47:44;;;;;;;;;;;26.80;59.70;;;;;;5075211;28;19916;-78
2022/06/13 08:50:10;;;;;;;;;;;27.60;57.10;;;;;;5074902;28;19915;-78
2022/06/13 08:52:41;;;;;;;;;;;27.70;58.00;;;;;;5074842;28;19908;-77
2022/06/13 08:55:07;;;;;;;;;;;27.00;59.20;;;;;;5074902;28;20427;-78
2022/06/13 08:57:34;;;;;;;;;;;26.30;60.00;;;;;;5074758;28;19909;-78
2022/06/13 09:00:05;;;;;;;;;;;26.70;59.00;;;;;;5073424;28;19915;-78
2022/06/13 09:02:34;;;;;;;;;;;26.30;59.30;;;;;;5074791;28;19921;-77
2022/06/13 09:04:59;;;;;;;;;;;26.50;59.30;;;;;;5074583;28;19916;-78
2022/06/13 09:07:28;;;;;;;;;;;27.20;56.00;;;;;;5074512;28;20284;-78
2022/06/13 09:09:57;;;;;;;;;;;28.30;54.80;;;;;;5074835;28;20305;-77
2022/06/13 09:12:27;;;;;;;;;;;29.50;53.00;;;;;;5074369;28;19944;-79
2022/06/13 09:15:02;;;;;;;;;;;29.30;51.30;;;;;;5074673;28;19908;-78
2022/06/13 09:17:47;;;;;;;;;;;29.50;52.70;;;;;;5074616;28;20340;-78
2022/06/13 09:20:17;;;;;;;;;;;30.30;50.20;;;;;;5053290;28;19913;-77
2022/06/13 09:23:00;;;;;;;;;;;29.40;51.40;;;;;;5074160;28;19995;-78
2022/06/13 09:25:45;;;;;;;;;;;30.20;51.00;;;;;;5074377;28;19909;-78
2022/06/13 09:28:11;;;;;;;;;;;30.10;51.10;;;;;;5074703;28;20357;-77
2022/06/13 09:30:41;;;;;;;;;;;29.50;50.20;;;;;;5074167;28;19909;-80
2022/06/13 09:33:36;;;;;;;;;;;28.30;51.60;;;;;;5074335;28;19974;-80
2022/06/13 09:36:10;;;;;;;;;;;28.00;52.70;;;;;;5064750;28;19912;-80
2022/06/13 09:38:38;;;;;;;;;;;28.70;52.50;;;;;;5073953;28;20003;-81
2022/06/13 09:41:15;;;;;;;;;;;28.90;52.50;;;;;;5073910;28;20258;-80
2022/06/13 09:43:40;;;;;;;;;;;29.00;52.00;;;;;;5074054;28;20357;-80
2022/06/13 09:46:14;;;;;;;;;;;28.70;50.00;;;;;;5072636;28;19915;-80
2022/06/13 09:48:46;;;;;;;;;;;28.50;51.40;;;;;;5074156;28;19999;-80
2022/06/13 09:51:30;;;;;;;;;;;28.10;51.20;;;;;;5074032;28;20003;-81
2022/06/13 09:54:14;;;;;;;;;;;28.90;51.50;;;;;;5073815;28;19908;-79
2022/06/13 09:57:09;;;;;;;;;;;29.70;50.90;;;;;;5073247;28;19908;-80
2022/06/13 09:59:34;;;;;;;;;;;29.90;50.60;;;;;;5064533;28;19909;-79
2022/06/13 10:02:19;;;;;;;;;;;29.30;50.40;;;;;;5072374;28;20353;-78
2022/06/13 10:05:02;;;;;;;;;;;28.70;50.50;;;;;;5074025;28;20254;-78
2022/06/13 10:07:42;;;;;;;;;;;28.70;51.00;;;;;;5073803;28;19912;-77
2022/06/13 10:10:22;;;;;;;;;;;28.50;50.50;;;;;;5072118;28;19916;-81
2022/06/13 10:13:02;;;;;;;;;;;28.70;50.90;;;;;;5073543;28;19916;-80
2022/06/13 10:15:36;;;;;;;;;;;28.90;51.00;;;;;;5073811;28;19909;-80
2022/06/13 10:18:07;;;;;;;;;;;30.10;50.60;;;;;;5073640;28;20288;-80
2022/06/13 10:20:53;;;;;;;;;;;29.50;49.30;;;;;;5073715;28;20374;-80
2022/06/13 10:23:34;;;;;;;;;;;30.50;48.80;;;;;;5071986;28;19916;-80
2022/06/13 10:26:06;;;;;;;;;;;30.60;48.20;;;;;;5073532;28;19958;-80
2022/06/13 10:28:50;;;;;;;;;;;30.80;48.30;;;;;;5073430;28;19908;-80
2022/06/13 10:31:24;;;;;;;;;;;30.60;47.90;;;;;;5073539;28;19912;-80
2022/06/13 10:34:05;;;;;;;;;;;30.40;48.30;;;;;;5073567;28;19975;-80
2022/06/13 10:36:30;;;;;;;;;;;30.60;49.10;;;;;;5073835;28;19958;-80
2022/06/13 10:39:00;;;;;;;;;;;30.90;47.50;;;;;;5073131;28;19924;-80
2022/06/13 10:41:27;;;;;;;;;;;31.00;47.50;;;;;;5073240;28;19912;-80
2022/06/13 10:43:54;;;;;;;;;;;30.60;47.20;;;;;;5073492;28;19908;-81
2022/06/13 10:46:20;;;;;;;;;;;30.60;47.30;;;;;;5073333;28;19908;-80
2022/06/13 10:48:51;;;;;;;;;;;31.00;47.60;;;;;;5073739;28;20387;-80
2022/06/13 10:51:17;;;;;;;;;;;31.60;46.70;;;;;;5073415;28;19908;-80
2022/06/13 10:53:49;;;;;;;;;;;32.40;46.70;;;;;;5073372;28;20292;-81
2022/06/13 10:56:20;;;;;;;;;;;31.90;46.40;;;;;;5073320;28;19970;-80
2022/06/13 10:58:47;;;;;;;;;;;32.40;46.20;;;;;;5073175;28;19916;-81
2022/06/13 11:01:13;;;;;;;;;;;32.00;47.10;;;;;;5073273;28;19958;-81
2022/06/13 11:03:43;;;;;;;;;;;33.50;46.10;;;;;;5073113;28;20327;-81
2022/06/13 11:06:18;;;;;;;;;;;32.80;44.90;;;;;;5073334;28;19913;-78
2022/06/13 11:08:44;;;;;;;;;;;33.70;44.70;;;;;;5077069;28;19913;-78
2022/06/13 11:11:16;;;;;;;;;;;33.30;43.90;;;;;;5077072;28;19974;-78
2022/06/13 11:13:43;;;;;;;;;;;33.50;44.50;;;;;;5076904;28;20321;-78
2022/06/13 11:22:40;;;;;;;;;;;34.60;43.60;;;;;;5060311;28;20366;-78
2022/06/13 11:25:16;;;;;;;;;;;34.40;43.00;;;;;;5076795;28;19908;-79
2022/06/13 11:27:41;;;;;;;;;;;34.90;42.90;;;;;;5076425;28;19915;-78
2022/06/13 11:30:25;;;;;;;;;;;35.30;41.40;;;;;;5076444;28;20277;-78
2022/06/13 11:33:01;;;;;;;;;;;35.30;41.60;;;;;;5076609;28;19916;-78
2022/06/13 11:35:30;;;;;;;;;;;34.50;41.80;;;;;;5076493;28;19908;-78
2022/06/13 11:38:08;;;;;;;;;;;34.00;41.90;;;;;;5076074;28;19960;-78
2022/06/13 11:40:34;;;;;;;;;;;33.80;42.50;;;;;;5076209;28;19908;-78
2022/06/13 11:43:00;;;;;;;;;;;34.20;41.60;;;;;;5076227;28;20284;-78
2022/06/13 11:45:28;;;;;;;;;;;34.60;41.40;;;;;;5076351;28;20356;-78
2022/06/13 11:47:53;;;;;;;;;;;35.10;41.20;;;;;;5076147;28;19908;-79
2022/06/13 11:50:19;;;;;;;;;;;35.40;40.70;;;;;;5075100;28;20338;-78
2022/06/13 11:55:31;;;;;;;;;;;34.30;40.70;;;;;;5075852;28;20422;-78
2022/06/13 11:58:01;;;;;;;;;;;33.40;41.60;;;;;;5076048;28;20352;-79
2022/06/13 12:00:32;;;;;;;;;;;34.00;41.50;;;;;;5075874;28;20281;-78
2022/06/13 12:03:05;;;;;;;;;;;35.50;41.10;;;;;;5076074;28;20003;-78
2022/06/13 12:05:36;;;;;;;;;;;35.20;40.90;;;;;;5075923;28;19909;-78
2022/06/13 12:08:04;;;;;;;;;;;34.60;41.10;;;;;;5075794;28;19908;-78
2022/06/13 12:10:37;;;;;;;;;;;34.40;40.00;;;;;;5075642;28;19908;-78
2022/06/13 12:13:03;;;;;;;;;;;35.00;40.50;;;;;;5075707;28;19954;-78
2022/06/13 12:15:40;;;;;;;;;;;35.30;39.90;;;;;;5075791;28;19919;-79
2022/06/13 12:18:05;;;;;;;;;;;36.00;39.90;;;;;;5074793;28;19916;-79
2022/06/13 12:20:31;;;;;;;;;;;35.70;38.80;;;;;;5075576;28;19908;-78
2022/06/13 12:23:19;;;;;;;;;;;35.70;39.60;;;;;;5075617;28;19912;-79
2022/06/13 12:25:45;;;;;;;;;;;36.40;39.20;;;;;;5075508;28;19908;-80
2022/06/13 12:28:12;;;;;;;;;;;36.80;39.00;;;;;;5075393;28;19915;-81
2022/06/13 12:30:48;;;;;;;;;;;35.60;39.40;;;;;;5074041;28;20047;-81
2022/06/13 12:33:23;;;;;;;;;;;36.30;39.10;;;;;;5075393;28;19916;-81
2022/06/13 12:35:54;;;;;;;;;;;36.50;39.40;;;;;;5075371;28;19912;-79
2022/06/13 12:38:32;;;;;;;;;;;36.10;39.60;;;;;;5074967;28;19962;-79
2022/06/13 12:41:03;;;;;;;;;;;36.80;39.60;;;;;;5075275;28;19913;-79
2022/06/13 12:43:42;;;;;;;;;;;36.30;39.20;;;;;;5075340;28;19944;-81
2022/06/13 12:46:21;;;;;;;;;;;36.70;39.30;;;;;;5075168;28;20353;-81
2022/06/13 12:48:57;;;;;;;;;;;35.20;38.80;;;;;;5074989;28;19931;-81
2022/06/13 12:51:42;;;;;;;;;;;35.00;39.40;;;;;;5075178;28;19909;-79
2022/06/13 12:54:08;;;;;;;;;;;35.30;39.50;;;;;;5074954;28;19908;-78
2022/06/13 12:56:33;;;;;;;;;;;35.70;38.70;;;;;;5074814;28;20387;-78
2022/06/13 12:59:17;;;;;;;;;;;35.40;38.90;;;;;;5073488;28;19916;-78
2022/06/13 13:01:52;;;;;;;;;;;36.00;40.00;;;;;;5074916;28;19919;-79
2022/06/13 13:04:23;;;;;;;;;;;36.00;39.30;;;;;;5074854;28;19908;-78
2022/06/13 13:07:07;;;;;;;;;;;36.30;39.30;;;;;;5074897;28;19912;-79
2022/06/13 13:09:39;;;;;;;;;;;37.40;38.90;;;;;;5074803;28;19957;-79
2022/06/13 13:12:07;;;;;;;;;;;36.60;39.10;;;;;;5074514;28;19915;-80
2022/06/13 13:14:44;;;;;;;;;;;35.90;39.40;;;;;;5074452;28;20024;-78
2022/06/13 13:17:12;;;;;;;;;;;35.20;39.50;;;;;;5074702;28;19909;-81
2022/06/13 13:19:44;;;;;;;;;;;35.00;39.70;;;;;;5074274;28;19936;-80
2022/06/13 13:22:21;;;;;;;;;;;35.70;39.90;;;;;;5072896;28;19913;-79
2022/06/13 13:24:52;;;;;;;;;;;36.30;39.20;;;;;;5074665;28;19908;-78
2022/06/13 13:27:19;;;;;;;;;;;36.90;39.20;;;;;;5074493;28;20430;-77
2022/06/13 13:29:44;;;;;;;;;;;37.10;38.70;;;;;;5074044;28;20090;-78
2022/06/13 13:32:29;;;;;;;;;;;37.30;38.50;;;;;;5074098;28;19944;-79
2022/06/13 13:35:13;;;;;;;;;;;35.90;38.90;;;;;;5074111;28;20395;-80
2022/06/13 13:37:40;;;;;;;;;;;35.50;39.90;;;;;;5073871;28;19962;-79
2022/06/13 13:40:12;;;;;;;;;;;35.80;40.10;;;;;;5074273;28;19958;-79
2022/06/13 13:42:41;;;;;;;;;;;35.70;39.50;;;;;;5074130;28;19913;-78
2022/06/13 13:45:22;;;;;;;;;;;34.40;40.70;;;;;;5073982;28;19958;-79
2022/06/13 13:47:50;;;;;;;;;;;35.60;40.70;;;;;;5073978;28;19913;-79
2022/06/13 13:50:20;;;;;;;;;;;37.60;39.20;;;;;;5072536;28;20286;-79
2022/06/13 13:52:50;;;;;;;;;;;37.80;39.20;;;;;;5073819;28;20369;-79
2022/06/13 13:55:15;;;;;;;;;;;37.20;38.50;;;;;;5074051;28;19908;-78
2022/06/13 13:57:46;;;;;;;;;;;37.10;39.00;;;;;;5073777;28;20409;-79
2022/06/13 14:00:18;;;;;;;;;;;37.20;39.70;;;;;;5073845;28;19940;-78
2022/06/13 14:02:53;;;;;;;;;;;38.00;38.90;;;;;;5072365;28;19913;-79
2022/06/13 14:05:48;;;;;;;;;;;38.10;38.40;;;;;;5073883;28;19912;-79
2022/06/13 14:08:20;;;;;;;;;;;36.10;39.40;;;;;;5064694;28;20381;-79
2022/06/13 14:10:53;;;;;;;;;;;35.50;40.20;;;;;;5073721;28;19908;-79
2022/06/13 14:13:22;;;;;;;;;;;36.50;40.20;;;;;;5073757;28;20015;-79
2022/06/13 14:15:50;;;;;;;;;;;36.70;39.20;;;;;;5073615;28;20392;-79
2022/06/13 14:18:20;;;;;;;;;;;38.20;39.30;;;;;;5072235;28;19909;-80
2022/06/13 14:20:46;;;;;;;;;;;38.60;38.90;;;;;;5073472;28;20411;-80
2022/06/13 14:23:17;;;;;;;;;;;39.00;38.70;;;;;;5073560;28;19912;-78
2022/06/13 14:25:43;;;;;;;;;;;38.40;38.20;;;;;;5073629;28;19908;-80
2022/06/13 14:28:10;;;;;;;;;;;37.50;38.80;;;;;;5073472;28;20401;-79
2022/06/13 14:36:08;;;;;;;;;;;39.80;38.00;;;;;;5073640;28;19939;-80
2022/06/13 14:38:45;;;;;;;;;;;38.60;37.90;;;;;;5073379;28;19921;-80
2022/06/13 14:41:16;;;;;;;;;;;38.40;38.80;;;;;;5073661;28;19912;-80
2022/06/13 14:43:52;;;;;;;;;;;40.10;39.40;;;;;;5077815;28;19963;-80
2022/06/13 14:46:24;;;;;;;;;;;40.90;37.80;;;;;;5077474;28;20345;-80
2022/06/13 14:48:52;;;;;;;;;;;41.00;37.40;;;;;;5075962;28;19912;-78
2022/06/13 14:51:17;;;;;;;;;;;40.80;37.60;;;;;;5077327;28;19935;-79
2022/06/13 14:53:43;;;;;;;;;;;41.20;37.30;;;;;;5077080;28;20022;-80
2022/06/13 14:56:08;;;;;;;;;;;41.40;37.00;;;;;;5075776;28;19912;-79
2022/06/13 14:58:44;;;;;;;;;;;41.50;36.80;;;;;;5077185;28;19909;-79
2022/06/13 15:01:19;;;;;;;;;;;42.10;36.50;;;;;;5075732;28;20292;-80
2022/06/13 15:04:05;;;;;;;;;;;43.00;36.60;;;;;;5076990;28;19909;-80